createdAt,value
2022-10-25T00:00:36.798Z,83.10
2022-10-25T00:03:05.400Z,82.90
2022-10-25T00:05:33.610Z,82.90
2022-10-25T00:08:02.322Z,83.00
2022-10-25T00:10:30.767Z,82.90
2022-10-25T00:12:59.806Z,82.90
2022-10-25T00:15:30.307Z,83.10
2022-10-25T00:17:58.887Z,83.10
2022-10-25T00:20:27.091Z,83.30
2022-10-25T00:22:55.680Z,83.30
2022-10-25T00:25:24.312Z,83.20
2022-10-25T00:27:52.883Z,83.10
2022-10-25T00:30:21.066Z,82.80
2022-10-25T00:32:53.282Z,82.70
2022-10-25T00:35:21.937Z,82.90
2022-10-25T00:37:50.549Z,83.10
2022-10-25T00:40:20.336Z,83.20
2022-10-25T00:42:48.699Z,83.20
2022-10-25T00:45:23.765Z,83.20
2022-10-25T00:47:59.712Z,83.20
2022-10-25T00:50:37.286Z,83.30
2022-10-25T00:53:10.174Z,82.90
2022-10-25T00:55:42.108Z,82.90
2022-10-25T00:58:16.208Z,82.90
2022-10-25T01:00:46.392Z,82.80
2022-10-25T01:03:18.259Z,82.90
2022-10-25T01:05:47.215Z,82.80
2022-10-25T01:08:16.559Z,82.90
2022-10-25T01:10:45.508Z,82.90
2022-10-25T01:13:13.659Z,82.90
2022-10-25T01:15:51.695Z,82.80
2022-10-25T01:18:29.500Z,82.60
2022-10-25T01:21:39.338Z,82.50
2022-10-25T01:24:39.355Z,82.60
2022-10-25T01:27:27.234Z,82.50
2022-10-25T01:30:12.058Z,82.60
2022-10-25T01:33:04.463Z,82.70
2022-10-25T01:35:36.703Z,82.90
2022-10-25T01:38:20.488Z,82.80
2022-10-25T01:40:54.229Z,83.10
2022-10-25T01:46:55.844Z,82.50
2022-10-25T01:49:31.391Z,82.80
2022-10-25T01:51:59.514Z,82.70
2022-10-25T01:54:28.213Z,82.50
2022-10-25T01:57:07.505Z,82.20
2022-10-25T02:00:04.018Z,82.50
2022-10-25T02:02:38.215Z,82.60
2022-10-25T02:05:17.320Z,82.50
2022-10-25T02:07:54.579Z,82.70
2022-10-25T02:10:27.586Z,82.70
2022-10-25T02:12:59.886Z,82.60
2022-10-25T02:15:36.024Z,82.70
2022-10-25T02:18:08.585Z,82.80
2022-10-25T02:20:40.789Z,82.70
2022-10-25T02:23:11.779Z,82.70
2022-10-25T02:25:44.075Z,82.50
2022-10-25T02:28:14.219Z,82.60
2022-10-25T02:30:44.701Z,82.60
2022-10-25T02:33:13.426Z,82.70
2022-10-25T02:35:43.646Z,82.50
2022-10-25T02:38:12.432Z,82.50
2022-10-25T02:40:40.566Z,82.30
2022-10-25T02:43:09.149Z,82.40
2022-10-25T02:45:37.264Z,82.50
2022-10-25T02:48:05.935Z,82.70
2022-10-25T02:50:34.560Z,83.00
2022-10-25T02:53:04.058Z,83.00
2022-10-25T02:55:32.611Z,82.80
2022-10-25T02:58:00.682Z,82.90
2022-10-25T03:00:30.075Z,82.90
2022-10-25T03:02:59.265Z,83.00
2022-10-25T03:05:27.369Z,83.10
2022-10-25T03:07:55.890Z,83.20
2022-10-25T03:10:25.393Z,83.10
2022-10-25T03:12:53.928Z,83.10
2022-10-25T03:15:21.997Z,83.00
2022-10-25T03:17:50.977Z,82.90
2022-10-25T03:20:19.553Z,82.90
2022-10-25T03:22:47.657Z,83.00
2022-10-25T03:25:16.281Z,82.90
2022-10-25T03:27:46.055Z,82.90
2022-10-25T03:30:15.130Z,82.90
2022-10-25T03:32:43.271Z,82.90
2022-10-25T03:35:11.720Z,83.00
2022-10-25T03:37:40.249Z,83.00
2022-10-25T03:40:09.510Z,83.10
2022-10-25T03:42:37.671Z,82.90
2022-10-25T03:45:08.349Z,82.80
2022-10-25T03:47:36.479Z,82.90
2022-10-25T03:50:05.466Z,82.80
2022-10-25T03:52:33.610Z,82.90
2022-10-25T03:55:01.757Z,82.90
2022-10-25T03:57:29.891Z,82.90
2022-10-25T04:00:00.231Z,82.90
2022-10-25T04:02:29.765Z,82.90
2022-10-25T04:04:58.348Z,83.00
2022-10-25T04:07:26.567Z,82.90
2022-10-25T04:09:54.728Z,82.90
2022-10-25T04:12:23.337Z,83.00
2022-10-25T04:14:51.465Z,83.40
2022-10-25T04:17:19.623Z,83.10
2022-10-25T04:19:49.131Z,83.10
2022-10-25T04:22:17.714Z,82.80
2022-10-25T04:24:45.862Z,82.80
2022-10-25T04:27:14.594Z,82.80
2022-10-25T04:29:42.719Z,82.90
2022-10-25T04:32:11.749Z,82.70
2022-10-25T04:34:40.292Z,82.70
2022-10-25T04:37:09.807Z,82.80
2022-10-25T04:39:38.403Z,82.80
2022-10-25T04:42:06.704Z,82.70
2022-10-25T04:44:35.324Z,82.70
2022-10-25T04:47:03.879Z,82.70
2022-10-25T04:49:32.054Z,82.70
2022-10-25T04:52:00.603Z,82.60
2022-10-25T04:54:30.148Z,82.60
2022-10-25T04:56:58.689Z,82.70
2022-10-25T04:59:27.292Z,82.80
2022-10-25T05:01:55.424Z,82.70
2022-10-25T05:04:23.762Z,82.80
2022-10-25T05:06:52.850Z,82.90
2022-10-25T05:09:20.999Z,82.60
2022-10-25T05:11:51.022Z,82.70
2022-10-25T05:14:19.795Z,82.60
2022-10-25T05:16:48.376Z,82.70
2022-10-25T05:19:16.479Z,82.80
2022-10-25T05:21:45.040Z,82.90
2022-10-25T05:24:13.194Z,82.90
2022-10-25T05:26:41.796Z,82.90
2022-10-25T05:29:13.576Z,82.90
2022-10-25T05:31:43.035Z,83.10
2022-10-25T05:34:12.221Z,83.10
2022-10-25T05:36:40.349Z,83.20
2022-10-25T05:39:08.988Z,83.10
2022-10-25T05:41:37.387Z,83.30
2022-10-25T05:44:06.574Z,83.30
2022-10-25T05:46:36.982Z,83.30
2022-10-25T05:49:05.350Z,83.10
2022-10-25T05:51:36.644Z,82.90
2022-10-25T05:54:09.502Z,82.90
2022-10-25T05:56:38.599Z,82.70
2022-10-25T05:59:09.419Z,82.60
2022-10-25T06:01:41.706Z,82.70
2022-10-25T06:04:10.752Z,82.80
2022-10-25T06:06:41.065Z,83.10
2022-10-25T06:09:09.795Z,83.10
2022-10-25T06:11:38.783Z,83.20
2022-10-25T06:14:07.841Z,83.20
2022-10-25T06:16:38.261Z,83.30
2022-10-25T06:19:08.038Z,83.30
2022-10-25T06:21:36.306Z,83.20
2022-10-25T06:24:05.171Z,83.10
2022-10-25T06:26:34.301Z,83.20
2022-10-25T06:29:04.140Z,83.30
2022-10-25T06:31:33.927Z,83.50
2022-10-25T06:34:02.519Z,83.80
2022-10-25T06:36:33.605Z,83.90
2022-10-25T06:39:05.809Z,84.10
2022-10-25T06:41:37.014Z,84.20
2022-10-25T06:44:07.442Z,84.40
2022-10-25T06:47:04.504Z,84.50
2022-10-25T06:49:26.601Z,84.80
2022-10-25T06:51:56.251Z,84.90
2022-10-25T06:54:25.581Z,85.10
2022-10-25T06:56:53.791Z,85.10
2022-10-25T06:59:21.930Z,85.30
2022-10-25T07:01:50.704Z,85.50
2022-10-25T07:04:19.360Z,85.50
2022-10-25T07:06:50.020Z,85.60
2022-10-25T07:09:22.775Z,85.50
2022-10-25T07:11:50.915Z,85.50
2022-10-25T07:14:19.180Z,85.50
2022-10-25T07:16:47.283Z,85.40
2022-10-25T07:19:16.026Z,85.40
2022-10-25T07:21:45.652Z,85.40
2022-10-25T07:24:14.014Z,85.30
2022-10-25T07:26:43.684Z,85.30
2022-10-25T07:29:12.496Z,85.10
2022-10-25T07:31:44.304Z,85.00
2022-10-25T07:34:14.851Z,85.10
2022-10-25T07:36:43.344Z,84.80
2022-10-25T07:39:11.907Z,84.80
2022-10-25T07:41:40.056Z,84.80
2022-10-25T07:44:15.476Z,84.70
2022-10-25T07:46:45.361Z,84.70
2022-10-25T07:49:14.498Z,84.50
2022-10-25T07:51:43.124Z,84.50
2022-10-25T07:54:11.264Z,84.60
2022-10-25T07:56:39.850Z,84.60
2022-10-25T07:59:09.798Z,84.80
2022-10-25T08:01:38.085Z,84.90
2022-10-25T08:04:06.779Z,84.80
2022-10-25T08:06:36.228Z,85.10
2022-10-25T08:09:14.350Z,85.20
2022-10-25T08:11:43.325Z,85.20
2022-10-25T08:14:13.407Z,85.10
2022-10-25T08:16:41.595Z,85.70
2022-10-25T08:19:10.147Z,85.30
2022-10-25T08:21:38.694Z,85.30
2022-10-25T08:24:08.096Z,85.30
2022-10-25T08:26:37.264Z,85.50
2022-10-25T08:29:06.069Z,85.50
2022-10-25T08:31:36.881Z,85.50
2022-10-25T08:34:05.858Z,85.50
2022-10-25T08:36:34.458Z,85.70
2022-10-25T08:39:02.597Z,85.70
2022-10-25T08:41:44.536Z,85.80
2022-10-25T08:44:21.438Z,85.90
2022-10-25T08:46:57.272Z,85.70
2022-10-25T08:49:31.301Z,85.70
2022-10-25T08:52:01.033Z,85.70
2022-10-25T08:54:32.469Z,85.70
2022-10-25T08:57:15.740Z,85.70
2022-10-25T08:59:46.388Z,85.70
2022-10-25T09:02:21.501Z,85.70
2022-10-25T09:04:49.941Z,85.70
2022-10-25T09:07:43.126Z,85.50
2022-10-25T09:10:20.511Z,85.50
2022-10-25T09:12:58.263Z,85.50
2022-10-25T09:15:44.466Z,85.50
2022-10-25T09:18:17.795Z,85.70
2022-10-25T09:20:52.099Z,85.50
2022-10-25T09:23:29.031Z,85.40
2022-10-25T09:26:05.332Z,85.40
2022-10-25T09:28:52.194Z,85.30
2022-10-25T09:31:24.298Z,85.30
2022-10-25T09:34:01.642Z,85.20
2022-10-25T09:36:38.620Z,85.10
2022-10-25T09:39:16.139Z,84.90
2022-10-25T09:41:48.663Z,84.70
2022-10-25T09:44:24.239Z,84.50
2022-10-25T09:46:56.394Z,84.60
2022-10-25T09:49:33.519Z,84.50
2022-10-25T09:52:08.276Z,84.50
2022-10-25T09:54:41.567Z,84.50
2022-10-25T09:57:09.721Z,84.90
2022-10-25T09:59:38.352Z,84.70
2022-10-25T10:02:06.583Z,84.50
2022-10-25T10:04:38.916Z,84.50
2022-10-25T10:07:13.225Z,84.50
2022-10-25T10:09:45.883Z,84.50
2022-10-25T10:12:22.186Z,84.40
2022-10-25T10:14:57.383Z,84.40
2022-10-25T10:17:27.627Z,84.60
2022-10-25T10:20:14.421Z,84.50
2022-10-25T10:25:19.566Z,83.90
2022-10-25T10:27:49.519Z,84.10
2022-10-25T10:30:24.923Z,83.70
2022-10-25T10:33:02.641Z,83.50
2022-10-25T10:35:34.416Z,83.40
2022-10-25T10:38:19.720Z,83.30
2022-10-25T10:40:50.786Z,83.00
2022-10-25T10:43:30.757Z,83.30
2022-10-25T10:46:04.866Z,82.80
2022-10-25T10:48:42.754Z,82.60
2022-10-25T10:51:38.948Z,82.60
2022-10-25T10:54:16.288Z,82.30
2022-10-25T10:56:44.478Z,81.90
2022-10-25T10:59:32.620Z,81.70
2022-10-25T11:02:26.339Z,81.10
2022-10-25T11:04:56.298Z,80.90
2022-10-25T11:07:35.117Z,81.40
2022-10-25T11:10:23.819Z,81.30
2022-10-25T11:13:07.766Z,81.00
2022-10-25T11:15:54.880Z,81.40
2022-10-25T11:18:34.997Z,81.20
2022-10-25T11:21:11.389Z,81.00
2022-10-25T11:23:51.370Z,81.00
2022-10-25T11:26:27.999Z,80.80
2022-10-25T11:29:08.496Z,80.90
2022-10-25T11:31:47.357Z,80.80
2022-10-25T11:34:24.234Z,79.70
2022-10-25T11:37:06.499Z,79.90
2022-10-25T11:39:48.681Z,78.80
2022-10-25T11:42:41.170Z,78.00
2022-10-25T11:45:33.888Z,78.00
2022-10-25T11:48:16.696Z,77.90
2022-10-25T11:50:53.355Z,78.00
2022-10-25T11:53:35.718Z,78.00
2022-10-25T11:56:14.627Z,77.10
2022-10-25T11:58:50.902Z,75.90
2022-10-25T12:01:30.278Z,74.10
2022-10-25T12:04:16.632Z,73.80
2022-10-25T12:06:52.982Z,72.80
2022-10-25T12:09:30.590Z,73.50
2022-10-25T12:12:04.253Z,73.30
2022-10-25T12:14:35.988Z,73.30
2022-10-25T12:17:05.974Z,73.80
2022-10-25T12:19:46.257Z,74.20
2022-10-25T12:22:18.958Z,74.40
2022-10-25T12:24:52.298Z,75.10
2022-10-25T12:27:24.641Z,75.10
2022-10-25T12:29:56.839Z,74.50
2022-10-25T12:32:33.851Z,73.90
2022-10-25T12:35:06.185Z,72.80
2022-10-25T12:37:39.412Z,72.60
2022-10-25T12:40:15.841Z,71.90
2022-10-25T12:42:48.150Z,71.60
2022-10-25T12:45:46.994Z,71.80
2022-10-25T12:48:27.764Z,71.70
2022-10-25T12:51:15.232Z,72.00
2022-10-25T12:54:23.345Z,71.70
2022-10-25T12:57:02.909Z,70.40
2022-10-25T12:59:43.012Z,71.40
2022-10-25T13:02:40.075Z,71.00
2022-10-25T13:05:44.536Z,70.20
2022-10-25T13:08:14.092Z,69.50
2022-10-25T13:10:47.504Z,70.50
2022-10-25T13:13:20.964Z,70.30
2022-10-25T13:15:52.448Z,69.80
2022-10-25T13:18:39.856Z,70.00
2022-10-25T13:21:09.590Z,68.90
2022-10-25T13:24:03.251Z,69.30
2022-10-25T13:26:34.522Z,68.40
2022-10-25T13:29:05.235Z,68.70
2022-10-25T13:31:58.673Z,67.50
2022-10-25T13:34:37.637Z,66.20
2022-10-25T13:37:27.787Z,65.70
2022-10-25T13:39:56.488Z,66.70
2022-10-25T13:42:31.766Z,66.40
2022-10-25T13:45:06.826Z,65.60
2022-10-25T13:47:40.742Z,65.80
2022-10-25T13:50:21.542Z,64.30
2022-10-25T13:53:02.626Z,63.90
2022-10-25T13:55:36.277Z,63.70
2022-10-25T13:58:44.575Z,65.10
2022-10-25T14:01:58.237Z,63.60
2022-10-25T14:04:39.897Z,64.50
2022-10-25T14:07:49.814Z,65.40
2022-10-25T14:10:37.073Z,65.30
2022-10-25T14:13:18.945Z,65.30
2022-10-25T14:15:53.728Z,65.90
2022-10-25T14:18:24.224Z,66.60
2022-10-25T14:20:57.015Z,67.30
2022-10-25T14:23:29.931Z,67.20
2022-10-25T14:26:00.017Z,67.20
2022-10-25T14:28:30.031Z,67.00
2022-10-25T14:31:00.092Z,66.60
2022-10-25T14:33:30.903Z,65.90
2022-10-25T14:36:10.470Z,65.30
2022-10-25T14:38:50.940Z,63.80
2022-10-25T14:41:23.460Z,64.70
2022-10-25T14:43:52.239Z,63.80
2022-10-25T14:46:22.349Z,63.70
2022-10-25T14:48:54.891Z,63.20
2022-10-25T14:51:28.381Z,62.20
2022-10-25T14:54:00.306Z,61.30
2022-10-25T14:56:33.824Z,60.80
2022-10-25T14:59:03.621Z,60.80
2022-10-25T15:01:32.419Z,61.10
2022-10-25T15:04:02.182Z,61.00
2022-10-25T15:06:33.529Z,60.70
2022-10-25T15:09:37.399Z,61.10
2022-10-25T15:12:08.305Z,61.40
2022-10-25T15:14:37.110Z,61.00
2022-10-25T15:17:06.888Z,61.70
2022-10-25T15:19:59.914Z,62.10
2022-10-25T15:22:31.961Z,61.90
2022-10-25T15:25:00.384Z,62.40
2022-10-25T15:27:35.267Z,62.80
2022-10-25T15:30:05.408Z,62.60
2022-10-25T15:32:34.810Z,63.20
2022-10-25T15:35:04.908Z,63.20
2022-10-25T15:37:34.349Z,63.20
2022-10-25T15:40:05.008Z,63.30
2022-10-25T15:42:34.796Z,63.60
2022-10-25T15:45:04.597Z,63.60
2022-10-25T15:47:34.419Z,63.80
2022-10-25T15:50:07.670Z,64.20
2022-10-25T15:52:37.188Z,64.40
2022-10-25T15:55:18.913Z,64.40
2022-10-25T15:57:47.086Z,64.50
2022-10-25T16:00:16.460Z,64.80
2022-10-25T16:02:45.353Z,65.30
2022-10-25T16:05:21.328Z,65.40
2022-10-25T16:07:51.362Z,65.40
2022-10-25T16:10:20.692Z,65.60
2022-10-25T16:12:57.058Z,65.90
2022-10-25T16:15:28.105Z,65.90
2022-10-25T16:17:56.836Z,66.10
2022-10-25T16:20:26.661Z,66.10
2022-10-25T16:22:57.160Z,66.40
2022-10-25T16:25:30.530Z,66.50
2022-10-25T16:28:02.035Z,66.70
2022-10-25T16:30:35.815Z,66.80
2022-10-25T16:33:05.698Z,67.20
2022-10-25T16:35:34.249Z,67.40
2022-10-25T16:38:04.512Z,67.70
2022-10-25T16:40:33.131Z,67.90
2022-10-25T16:43:01.447Z,68.10
2022-10-25T16:45:31.211Z,68.20
2022-10-25T16:48:00.018Z,68.60
2022-10-25T16:50:30.452Z,68.80
2022-10-25T16:53:00.819Z,69.10
2022-10-25T16:55:31.519Z,69.30
2022-10-25T16:58:00.813Z,69.60
2022-10-25T17:00:32.501Z,69.60
2022-10-25T17:03:01.089Z,69.80
2022-10-25T17:05:32.667Z,69.90
2022-10-25T17:08:01.304Z,70.20
2022-10-25T17:10:30.932Z,70.20
2022-10-25T17:13:03.624Z,70.50
2022-10-25T17:15:33.170Z,70.50
2022-10-25T17:18:01.321Z,70.60
2022-10-25T17:20:29.817Z,70.80
2022-10-25T17:22:58.352Z,70.90
2022-10-25T17:25:26.492Z,71.90
2022-10-25T17:27:56.499Z,71.10
2022-10-25T17:30:24.593Z,71.20
2022-10-25T17:32:52.738Z,71.30
2022-10-25T17:35:28.517Z,71.50
2022-10-25T17:37:58.061Z,71.90
2022-10-25T17:40:26.636Z,72.00
2022-10-25T17:42:56.172Z,72.20
2022-10-25T17:45:24.285Z,72.30
2022-10-25T17:47:52.842Z,72.40
2022-10-25T17:50:22.297Z,72.60
2022-10-25T17:52:52.250Z,72.70
2022-10-25T17:55:20.362Z,72.80
2022-10-25T17:57:49.155Z,72.80
2022-10-25T18:00:19.242Z,73.00
2022-10-25T18:02:50.700Z,73.20
2022-10-25T18:05:21.136Z,73.20
2022-10-25T18:07:50.747Z,73.40
2022-10-25T18:10:19.690Z,73.40
2022-10-25T18:12:48.725Z,73.40
2022-10-25T18:15:23.556Z,73.30
2022-10-25T18:17:52.076Z,73.60
2022-10-25T18:20:20.178Z,73.50
2022-10-25T18:22:48.278Z,73.50
2022-10-25T18:25:16.639Z,74.50
2022-10-25T18:27:44.876Z,73.60
2022-10-25T18:30:13.878Z,73.50
2022-10-25T18:32:43.778Z,73.60
2022-10-25T18:35:11.876Z,73.60
2022-10-25T18:37:40.502Z,73.80
2022-10-25T18:40:10.239Z,74.10
2022-10-25T18:42:39.267Z,74.30
2022-10-25T18:45:08.353Z,74.50
2022-10-25T18:47:38.603Z,74.70
2022-10-25T18:50:09.065Z,75.60
2022-10-25T18:52:37.614Z,74.80
2022-10-25T18:55:06.481Z,74.70
2022-10-25T18:57:35.101Z,74.70
2022-10-25T19:00:03.358Z,74.70
2022-10-25T19:02:36.782Z,74.70
2022-10-25T19:07:36.306Z,74.80
2022-10-25T19:10:04.625Z,74.80
2022-10-25T19:12:32.757Z,75.00
2022-10-25T19:15:00.920Z,75.00
2022-10-25T19:17:29.058Z,75.00
2022-10-25T19:19:57.147Z,75.10
2022-10-25T19:22:27.088Z,75.10
2022-10-25T19:24:55.957Z,75.20
2022-10-25T19:27:24.258Z,75.30
2022-10-25T19:29:52.877Z,75.40
2022-10-25T19:32:21.022Z,75.50
2022-10-25T19:34:49.122Z,75.50
2022-10-25T19:37:17.271Z,75.70
2022-10-25T19:39:46.798Z,75.80
2022-10-25T19:42:15.768Z,75.90
2022-10-25T19:44:44.097Z,75.70
2022-10-25T19:47:12.693Z,75.70
2022-10-25T19:49:41.418Z,75.80
2022-10-25T19:52:09.572Z,75.80
2022-10-25T19:54:38.180Z,75.80
2022-10-25T19:57:07.922Z,75.80
2022-10-25T19:59:36.084Z,75.80
2022-10-25T20:02:04.442Z,75.80
2022-10-25T20:04:33.166Z,75.90
2022-10-25T20:07:01.716Z,75.90
2022-10-25T20:09:29.851Z,75.90
2022-10-25T20:11:58.498Z,76.00
2022-10-25T20:14:30.838Z,76.10
2022-10-25T20:16:59.026Z,76.10
2022-10-25T20:19:27.185Z,76.20
2022-10-25T20:21:55.404Z,76.20
2022-10-25T20:24:24.206Z,76.30
2022-10-25T20:26:53.291Z,76.40
2022-10-25T20:29:25.894Z,76.50
2022-10-25T20:31:55.819Z,76.50
2022-10-25T20:34:23.965Z,76.50
2022-10-25T20:36:52.181Z,76.40
2022-10-25T20:39:20.354Z,76.40
2022-10-25T20:41:48.475Z,76.40
2022-10-25T20:44:17.074Z,76.40
2022-10-25T20:46:45.245Z,76.30
2022-10-25T20:49:14.848Z,76.30
2022-10-25T20:51:43.382Z,76.30
2022-10-25T20:54:12.566Z,76.30
2022-10-25T20:56:40.757Z,76.40
2022-10-25T20:59:09.143Z,76.50
2022-10-25T21:01:37.917Z,76.60
2022-10-25T21:04:06.438Z,76.60
2022-10-25T21:06:36.449Z,76.60
2022-10-25T21:09:05.205Z,76.60
2022-10-25T21:11:33.581Z,76.50
2022-10-25T21:14:02.173Z,76.40
2022-10-25T21:16:30.785Z,76.30
2022-10-25T21:19:03.173Z,76.50
2022-10-25T21:21:32.228Z,76.70
2022-10-25T21:24:02.942Z,76.80
2022-10-25T21:26:31.035Z,76.80
2022-10-25T21:28:59.678Z,77.20
2022-10-25T21:31:27.788Z,77.30
2022-10-25T21:33:59.510Z,77.50
2022-10-25T21:36:28.362Z,77.70
2022-10-25T21:38:57.480Z,77.90
2022-10-25T21:41:28.050Z,77.90
2022-10-25T21:43:57.738Z,78.10
2022-10-25T21:46:27.623Z,78.10
2022-10-25T21:48:56.540Z,77.70
2022-10-25T21:51:25.417Z,77.40
2022-10-25T21:53:55.457Z,77.10
2022-10-25T21:56:30.703Z,77.00
2022-10-25T21:59:02.248Z,77.00
2022-10-25T22:01:32.031Z,77.10
2022-10-25T22:04:00.657Z,77.20
2022-10-25T22:06:28.966Z,77.10
2022-10-25T22:08:57.573Z,77.00
2022-10-25T22:11:27.624Z,76.90
2022-10-25T22:13:56.648Z,77.10
2022-10-25T22:16:26.763Z,77.20
2022-10-25T22:18:58.206Z,77.70
2022-10-25T22:21:27.559Z,77.70
2022-10-25T22:23:55.732Z,77.80
2022-10-25T22:26:24.308Z,77.90
2022-10-25T22:28:53.799Z,78.00
2022-10-25T22:31:23.742Z,78.20
2022-10-25T22:33:56.063Z,78.30
2022-10-25T22:36:25.645Z,78.50
2022-10-25T22:38:54.140Z,78.50
2022-10-25T22:41:24.035Z,78.50
2022-10-25T22:43:53.054Z,78.60
2022-10-25T22:46:25.368Z,78.50
2022-10-25T22:48:56.539Z,78.60
2022-10-25T22:51:26.906Z,78.70
2022-10-25T22:53:55.064Z,78.90
2022-10-25T22:56:24.760Z,78.90
2022-10-25T22:58:54.823Z,79.30
2022-10-25T23:01:24.913Z,79.50
2022-10-25T23:03:56.789Z,79.60
2022-10-25T23:06:27.323Z,79.70
2022-10-25T23:08:56.745Z,79.80
2022-10-25T23:11:26.906Z,79.80
2022-10-25T23:13:55.061Z,79.90
2022-10-25T23:16:23.194Z,79.80
2022-10-25T23:18:52.106Z,79.80
2022-10-25T23:21:24.335Z,79.70
2022-10-25T23:23:54.104Z,79.80
2022-10-25T23:26:24.870Z,79.70
2022-10-25T23:28:53.589Z,79.70
2022-10-25T23:31:22.369Z,79.60
2022-10-25T23:33:53.122Z,79.60
2022-10-25T23:36:24.627Z,79.70
2022-10-25T23:38:54.240Z,79.70
2022-10-25T23:41:23.999Z,79.70
2022-10-25T23:43:52.943Z,79.70
2022-10-25T23:46:21.110Z,79.70
2022-10-25T23:48:49.262Z,80.20
2022-10-25T23:51:19.767Z,79.80
2022-10-25T23:53:49.238Z,79.90
2022-10-25T23:56:17.782Z,79.90
2022-10-25T23:58:50.859Z,79.90
